Time;durP1;ratioP1;P1;durP2;ratioP2;P2;SDS_P1;SDS_P2;PMS_P1;PMS_P2;Temp;Humidity;BMP_temperature;BMP_pressure;BME280_temperature;BME280_humidity;BME280_pressure;Samples;Min_cycle;Max_cycle;Signal;HPM_P1;HPM_P2
2022/08/07 00:02:07;;;;;;;2.85;2.55;;;;;;;;;;5031094;28;20064;-71
2022/08/07 00:04:34;;;;;;;3.67;3.08;;;21.20;59.60;;;;;;5043863;28;20049;-71
2022/08/07 00:07:00;;;;;;;3.28;2.88;;;20.30;59.00;;;;;;5052382;28;20049;-71
2022/08/07 00:09:28;;;;;;;3.65;2.90;;;21.10;59.40;;;;;;5051775;28;20420;-73
2022/08/07 00:11:56;;;;;;;3.58;2.80;;;;;;;;;;5051130;28;20490;-73
2022/08/07 00:14:25;;;;;;;3.22;2.92;;;;;;;;;;5052485;28;20048;-72
2022/08/07 00:16:52;;;;;;;3.30;3.00;;;21.60;59.80;;;;;;5051163;28;20057;-73
2022/08/07 00:19:19;;;;;;;3.40;3.05;;;20.90;59.40;;;;;;5035858;28;20052;-74
2022/08/07 00:21:46;;;;;;;3.95;2.72;;;;;;;;;;5031056;28;20053;-71
2022/08/07 00:24:13;;;;;;;3.38;2.92;;;21.20;59.50;;;;;;5047879;28;20053;-70
2022/08/07 00:26:41;;;;;;;3.80;2.80;;;21.00;53.40;;;;;;5031018;28;20057;-72
2022/08/07 00:29:08;;;;;;;3.55;2.80;;;21.20;59.80;;;;;;5032339;28;20053;-73
2022/08/07 00:31:35;;;;;;;3.22;2.92;;;21.10;59.60;;;;;;5031590;28;20068;-70
2022/08/07 00:34:01;;;;;;;3.15;2.83;;;21.10;59.50;;;;;;5050960;28;20059;-71
2022/08/07 00:36:28;;;;;;;3.10;2.80;;;21.40;54.70;;;;;;5051902;28;20055;-71
2022/08/07 00:38:55;;;;;;;3.55;2.80;;;21.00;59.60;;;;;;5052068;28;20060;-71
2022/08/07 00:41:26;;;;;;;3.30;2.88;;;20.60;59.50;;;;;;5050763;28;20064;-70
2022/08/07 00:43:54;;;;;;;3.28;2.75;;;21.70;60.10;;;;;;5050730;28;20401;-70
2022/08/07 00:46:21;;;;;;;3.92;2.70;;;21.10;59.50;;;;;;5044754;28;20090;-70
2022/08/07 00:48:48;;;;;;;3.05;2.72;;;21.00;59.70;;;;;;5030594;28;20076;-71
2022/08/07 00:51:14;;;;;;;3.85;2.85;;;20.30;59.10;;;;;;5031633;28;20045;-74
2022/08/07 00:53:41;;;;;;;3.50;3.20;;;21.00;59.70;;;;;;5030899;28;20413;-74
2022/08/07 00:56:10;;;;;;;3.72;2.95;;;;;;;;;;5031526;28;20060;-74
2022/08/07 00:58:38;;;;;;;3.03;2.65;;;21.20;57.10;;;;;;5031840;28;20091;-73
2022/08/07 01:01:06;;;;;;;3.28;2.90;;;20.90;53.40;;;;;;5041960;28;20051;-74
2022/08/07 01:03:33;;;;;;;3.50;3.17;;;21.20;60.20;;;;;;5050603;28;20463;-71
2022/08/07 01:06:00;;;;;;;2.90;2.60;;;21.50;60.20;;;;;;5051264;28;20049;-71
2022/08/07 01:08:26;;;;;;;3.50;2.85;;;21.20;59.60;;;;;;5051678;28;20136;-70
2022/08/07 01:10:53;;;;;;;3.60;3.10;;;20.80;57.60;;;;;;5051328;28;20127;-71
2022/08/07 01:13:20;;;;;;;3.40;2.97;;;21.00;57.80;;;;;;5051507;28;20052;-70
2022/08/07 01:15:47;;;;;;;3.42;3.00;;;20.80;59.80;;;;;;5034969;28;20057;-72
2022/08/07 01:18:15;;;;;;;3.50;3.00;;;21.10;59.90;;;;;;5031437;28;20141;-71
2022/08/07 01:20:45;;;;;;;3.55;3.00;;;20.80;55.20;;;;;;5030900;28;20041;-70
2022/08/07 01:23:13;;;;;;;3.00;2.70;;;20.10;59.50;;;;;;5030235;28;20064;-70
2022/08/07 01:25:40;;;;;;;3.10;2.70;;;21.20;59.70;;;;;;5030313;28;20128;-71
2022/08/07 01:28:07;;;;;;;2.90;2.60;;;21.00;59.70;;;;;;5029852;28;20053;-70
2022/08/07 01:30:33;;;;;;;3.38;3.00;;;21.00;60.00;;;;;;5049868;28;20065;-72
2022/08/07 01:33:00;;;;;;;2.80;2.33;;;21.30;59.90;;;;;;5051269;28;20052;-70
2022/08/07 01:35:27;;;;;;;3.03;2.72;;;20.00;59.30;;;;;;5050321;28;20575;-70
2022/08/07 01:37:54;;;;;;;3.35;2.70;;;;;;;;;;5066757;28;20049;-72
2022/08/07 01:40:22;;;;;;;2.95;2.72;;;20.90;59.70;;;;;;5049658;28;20049;-70
2022/08/07 01:42:49;;;;;;;3.40;2.90;;;21.50;60.10;;;;;;5045737;28;20041;-70
2022/08/07 01:45:15;;;;;;;3.25;2.70;;;20.70;59.90;;;;;;5030305;28;20206;-70
2022/08/07 01:47:42;;;;;;;3.15;2.80;;;;;;;;;;5031312;28;20053;-73
2022/08/07 01:50:09;;;;;;;2.83;2.50;;;20.50;59.70;;;;;;5030629;28;20050;-74
2022/08/07 01:52:37;;;;;;;2.90;2.40;;;20.00;56.50;;;;;;5029865;28;20064;-74
2022/08/07 01:55:04;;;;;;;2.75;2.45;;;20.80;60.10;;;;;;5043884;28;20041;-71
2022/08/07 01:57:33;;;;;;;3.35;2.60;;;20.70;60.00;;;;;;5049662;28;20053;-71
2022/08/07 02:00:01;;;;;;;2.97;2.67;;;20.70;59.80;;;;;;5050791;28;20045;-71
2022/08/07 02:02:30;;;;;;;2.80;2.50;;;20.70;53.50;;;;;;5049767;28;20068;-72
2022/08/07 02:05:01;;;;;;;3.00;2.70;;;20.90;55.60;;;;;;5049896;28;20063;-70
2022/08/07 02:07:30;;;;;;;3.70;2.65;;;21.40;60.30;;;;;;5066496;28;20056;-71
2022/08/07 02:09:57;;;;;;;3.45;2.78;;;20.90;59.80;;;;;;5031374;28;20046;-70
2022/08/07 02:12:24;;;;;;;2.72;2.53;;;20.70;59.80;;;;;;5031853;28;20045;-70
2022/08/07 02:14:53;;;;;;;3.00;2.67;;;20.70;53.50;;;;;;5031069;28;20050;-71
2022/08/07 02:17:20;;;;;;;3.10;2.80;;;20.50;59.70;;;;;;5030090;28;20068;-70
2022/08/07 02:19:48;;;;;;;3.00;2.70;;;20.70;59.90;;;;;;5029679;28;20136;-71
2022/08/07 02:22:16;;;;;;;3.15;2.85;;;21.10;60.00;;;;;;5033382;28;20464;-72
2022/08/07 02:24:43;;;;;;;2.92;2.50;;;20.70;60.00;;;;;;5049263;28;20641;-70
2022/08/07 02:27:10;;;;;;;3.67;2.78;;;20.90;59.90;;;;;;5049753;28;20049;-70
2022/08/07 02:29:36;;;;;;;3.17;2.58;;;20.50;60.00;;;;;;5049907;28;20053;-70
2022/08/07 02:32:05;;;;;;;2.97;2.70;;;20.60;53.40;;;;;;5052072;28;20045;-72
2022/08/07 02:34:31;;;;;;;3.00;2.70;;;20.60;55.90;;;;;;5053259;28;20055;-71
2022/08/07 02:36:58;;;;;;;3.58;2.70;;;20.90;59.90;;;;;;5045336;28;20046;-71
2022/08/07 02:39:25;;;;;;;2.83;2.53;;;20.40;59.90;;;;;;5033439;28;20375;-70
2022/08/07 02:41:52;;;;;;;2.70;2.47;;;20.50;56.60;;;;;;5032693;28;20422;-71
2022/08/07 02:44:19;;;;;;;3.80;2.70;;;20.50;53.50;;;;;;5033216;28;20057;-70
2022/08/07 02:46:46;;;;;;;3.20;2.65;;;20.70;59.80;;;;;;5032977;28;20049;-70
2022/08/07 02:49:14;;;;;;;3.35;2.80;;;20.30;60.00;;;;;;5034119;28;20052;-70
2022/08/07 02:51:41;;;;;;;3.92;2.55;;;20.30;59.90;;;;;;5047317;28;20156;-70
2022/08/07 02:54:08;;;;;;;3.75;3.13;;;21.00;59.90;;;;;;5053664;28;20056;-72
2022/08/07 02:56:35;;;;;;;3.00;2.70;;;19.80;59.40;;;;;;5053009;28;20091;-70
2022/08/07 02:59:04;;;;;;;3.05;2.63;;;19.70;59.60;;;;;;5053854;28;20056;-70
2022/08/07 03:01:30;;;;;;;3.33;2.92;;;20.80;60.30;;;;;;5069325;28;20091;-74
2022/08/07 03:03:57;;;;;;;3.00;2.70;;;20.50;59.00;;;;;;5052538;28;20061;-74
2022/08/07 03:06:25;;;;;;;3.20;2.78;;;19.80;59.70;;;;;;5034508;28;20057;-74
2022/08/07 03:08:52;;;;;;;3.08;2.78;;;20.80;60.20;;;;;;5032632;28;20049;-74
2022/08/07 03:11:19;;;;;;;3.70;2.80;;;20.50;56.50;;;;;;5033521;28;20483;-73
2022/08/07 03:13:46;;;;;;;2.60;2.40;;;20.10;59.90;;;;;;5032741;28;20067;-74
2022/08/07 03:16:13;;;;;;;3.15;2.85;;;;;;;;;;5032403;28;20144;-72
2022/08/07 03:18:40;;;;;;;3.42;2.80;;;19.60;59.40;;;;;;5051368;28;20053;-73
2022/08/07 03:21:08;;;;;;;3.15;2.72;;;19.70;59.60;;;;;;5053422;28;20047;-73
2022/08/07 03:23:36;;;;;;;2.78;2.42;;;20.40;53.40;;;;;;5053378;28;20055;-72
2022/08/07 03:26:03;;;;;;;2.90;2.60;;;;;;;;;;5053510;28;20124;-72
2022/08/07 03:28:29;;;;;;;2.97;2.60;;;20.60;58.10;;;;;;5052792;28;20045;-71
2022/08/07 03:31:17;;;;;;;3.10;2.80;;;20.90;54.40;;;;;;5052891;28;20049;-70
2022/08/07 03:33:44;;;;;;;3.00;2.65;;;20.50;60.00;;;;;;5042017;28;20058;-70
2022/08/07 03:36:10;;;;;;;3.15;2.65;;;20.20;59.80;;;;;;5032204;28;20054;-70
2022/08/07 03:38:39;;;;;;;3.30;2.60;;;20.60;54.10;;;;;;5031974;28;20086;-71
2022/08/07 03:41:06;;;;;;;2.60;2.40;;;20.30;59.80;;;;;;5032087;28;20136;-73
2022/08/07 03:43:33;;;;;;;2.85;2.50;;;21.10;57.70;;;;;;5032902;28;20054;-73
2022/08/07 03:46:00;;;;;;;2.70;2.50;;;20.70;60.30;;;;;;5032152;28;20065;-73
2022/08/07 03:48:28;;;;;;;3.13;2.65;;;;;;;;;;5047780;28;20075;-73
2022/08/07 03:50:56;;;;;;;3.10;2.80;;;20.40;60.10;;;;;;5052551;28;20429;-74
2022/08/07 03:53:23;;;;;;;4.28;2.70;;;20.30;60.10;;;;;;5051815;28;20520;-74
2022/08/07 03:55:51;;;;;;;3.20;2.90;;;20.30;53.30;;;;;;5052833;28;20079;-72
2022/08/07 03:58:17;;;;;;;2.90;2.60;;;20.50;60.00;;;;;;5052700;28;20564;-71
2022/08/07 04:00:44;;;;;;;3.30;2.90;;;20.40;54.40;;;;;;5051355;28;20135;-73
2022/08/07 04:03:11;;;;;;;3.17;2.63;;;;;;;;;;5050987;28;20136;-74
2022/08/07 04:05:38;;;;;;;2.85;2.42;;;;;;;;;;5051788;28;20143;-73
2022/08/07 04:08:05;;;;;;;2.92;2.60;;;20.30;60.00;;;;;;5052261;28;20049;-74
2022/08/07 04:10:32;;;;;;;3.65;2.63;;;19.70;59.50;;;;;;5051118;28;20083;-74
2022/08/07 04:13:00;;;;;;;3.25;2.80;;;20.20;60.10;;;;;;5052474;28;20057;-73
2022/08/07 04:15:27;;;;;;;2.70;2.50;;;20.00;59.80;;;;;;5048030;28;20552;-73
2022/08/07 04:17:53;;;;;;;2.90;2.60;;;19.90;60.00;;;;;;5031377;28;20140;-73
2022/08/07 04:20:21;;;;;;;3.08;2.72;;;;;;;;;;5031338;28;20085;-73
2022/08/07 04:22:49;;;;;;;3.03;2.60;;;20.30;60.10;;;;;;5047870;28;20136;-73
2022/08/07 04:25:15;;;;;;;3.28;2.65;;;20.10;59.80;;;;;;5032508;28;20046;-73
2022/08/07 04:27:42;;;;;;;2.70;2.42;;;;;;;;;;5032620;28;20133;-74
2022/08/07 04:30:11;;;;;;;4.07;2.88;;;20.20;59.70;;;;;;5040513;28;20045;-74
2022/08/07 04:32:38;;;;;;;2.60;2.40;;;19.70;59.70;;;;;;5040812;28;20057;-73
2022/08/07 04:35:06;;;;;;;3.03;2.65;;;20.30;59.90;;;;;;5032470;28;20045;-73
2022/08/07 04:37:34;;;;;;;2.83;2.53;;;20.60;58.60;;;;;;5031336;28;20402;-73
2022/08/07 04:40:01;;;;;;;2.90;2.60;;;19.40;59.50;;;;;;5030801;28;20141;-72
2022/08/07 04:42:30;;;;;;;2.90;2.60;;;21.10;60.30;;;;;;5030966;28;20055;-74
2022/08/07 04:44:57;;;;;;;3.03;2.65;;;19.30;52.70;;;;;;5044491;28;20494;-74
2022/08/07 04:47:29;;;;;;;2.83;2.53;;;20.30;60.10;;;;;;5051051;28;20057;-74
2022/08/07 04:49:59;;;;;;;3.25;2.80;;;20.40;58.80;;;;;;5050250;28;20076;-73
2022/08/07 04:52:40;;;;;;;3.10;2.70;;;20.30;60.00;;;;;;5067479;28;20063;-74
2022/08/07 04:55:13;;;;;;;3.10;2.80;;;20.30;53.30;;;;;;5050481;28;20052;-72
2022/08/07 04:57:44;;;;;;;3.53;2.70;;;20.30;53.20;;;;;;5050730;28;20489;-72
2022/08/07 05:00:12;;;;;;;2.92;2.58;;;20.40;60.10;;;;;;5032706;28;20060;-74
2022/08/07 05:02:44;;;;;;;3.08;2.70;;;20.40;60.10;;;;;;5030847;28;20060;-73
2022/08/07 05:05:15;;;;;;;3.05;2.72;;;21.00;60.10;;;;;;5030766;28;20063;-74
2022/08/07 05:07:44;;;;;;;2.97;2.67;;;20.00;55.40;;;;;;5031990;28;20056;-73
2022/08/07 05:10:12;;;;;;;2.83;2.53;;;20.30;53.20;;;;;;5030079;28;20057;-74
2022/08/07 05:12:42;;;;;;;3.28;2.67;;;20.00;59.60;;;;;;5036198;28;20048;-74
2022/08/07 05:15:17;;;;;;;3.00;2.70;;;20.20;59.90;;;;;;5051679;28;20049;-74
2022/08/07 05:17:46;;;;;;;3.30;2.90;;;20.50;60.00;;;;;;5067287;28;20064;-74
2022/08/07 05:20:14;;;;;;;2.80;2.50;;;19.80;59.70;;;;;;5051234;28;20049;-73
2022/08/07 05:22:41;;;;;;;3.05;2.65;;;20.30;60.10;;;;;;5051260;28;20049;-74
2022/08/07 05:25:09;;;;;;;3.50;2.72;;;20.50;60.60;;;;;;5051614;28;20055;-72
2022/08/07 05:27:35;;;;;;;4.22;2.70;;;19.40;59.60;;;;;;5043870;28;20061;-74
2022/08/07 05:30:02;;;;;;;3.20;2.67;;;;;;;;;;5031159;28;20376;-73
2022/08/07 05:32:29;;;;;;;3.05;2.60;;;20.70;60.10;;;;;;5046777;28;20391;-75
2022/08/07 05:34:57;;;;;;;3.00;2.70;;;20.00;59.80;;;;;;5030088;28;20053;-75
2022/08/07 05:37:24;;;;;;;3.17;2.50;;;20.90;60.50;;;;;;5031102;28;20046;-75
2022/08/07 05:39:51;;;;;;;3.00;2.70;;;;;;;;;;5030022;28;20091;-74
2022/08/07 05:42:18;;;;;;;4.50;2.53;;;;;;;;;;5057166;28;20128;-75
2022/08/07 05:44:45;;;;;;;4.05;3.05;;;;;;;;;;5049565;28;20048;-74
2022/08/07 05:47:12;;;;;;;4.55;2.95;;;20.30;60.20;;;;;;5049932;28;20056;-75
2022/08/07 05:49:39;;;;;;;3.28;2.90;;;20.20;59.90;;;;;;5051191;28;20410;-75
2022/08/07 05:52:07;;;;;;;3.22;2.55;;;20.10;59.90;;;;;;5049350;28;20501;-75
2022/08/07 05:54:35;;;;;;;3.53;2.80;;;20.30;60.30;;;;;;5049627;28;20055;-75
2022/08/07 05:57:01;;;;;;;3.38;2.67;;;20.00;56.20;;;;;;5039009;28;20095;-72
2022/08/07 05:59:28;;;;;;;3.08;2.67;;;20.50;60.40;;;;;;5030063;28;20055;-71
2022/08/07 06:01:55;;;;;;;3.03;2.72;;;20.80;60.60;;;;;;5029667;28;20140;-72
2022/08/07 06:04:22;;;;;;;3.40;2.85;;;20.40;56.10;;;;;;5031196;28;20053;-72
2022/08/07 06:06:48;;;;;;;3.15;2.83;;;20.80;60.60;;;;;;5031396;28;20099;-72
2022/08/07 06:09:16;;;;;;;3.00;2.70;;;20.30;60.30;;;;;;5033594;28;20084;-74
2022/08/07 06:11:44;;;;;;;3.05;2.63;;;;;;;;;;5048268;28;20048;-74
2022/08/07 06:14:10;;;;;;;3.33;2.67;;;19.90;59.80;;;;;;5053515;28;20057;-71
2022/08/07 06:16:37;;;;;;;3.20;2.80;;;;;;;;;;5053791;28;20053;-72
2022/08/07 06:19:04;;;;;;;2.97;2.65;;;20.10;60.10;;;;;;5053655;28;20477;-72
2022/08/07 06:21:32;;;;;;;3.38;2.70;;;20.70;60.10;;;;;;5054171;28;20136;-71
2022/08/07 06:23:59;;;;;;;3.50;3.08;;;;;;;;;;5053299;28;20136;-71
2022/08/07 06:26:27;;;;;;;3.17;2.85;;;20.60;59.90;;;;;;5038351;28;20068;-71
2022/08/07 06:28:55;;;;;;;3.45;2.92;;;19.80;59.40;;;;;;5034319;28;20128;-71
2022/08/07 06:31:22;;;;;;;3.40;3.10;;;20.80;53.40;;;;;;5033192;28;20053;-72
2022/08/07 06:33:49;;;;;;;3.58;3.00;;;20.80;59.90;;;;;;5033222;28;20057;-72
2022/08/07 06:36:15;;;;;;;3.78;3.00;;;20.90;59.80;;;;;;5033110;28;20137;-72
2022/08/07 06:38:43;;;;;;;3.78;3.00;;;;;;;;;;5033130;28;20494;-73
2022/08/07 06:41:11;;;;;;;3.85;3.08;;;20.20;58.20;;;;;;5053692;28;20060;-72
2022/08/07 06:43:40;;;;;;;3.20;2.90;;;20.90;59.00;;;;;;5053973;28;20045;-72
2022/08/07 06:46:07;;;;;;;3.22;2.80;;;;;;;;;;5054177;28;20073;-73
2022/08/07 06:48:33;;;;;;;3.10;2.80;;;21.40;53.60;;;;;;5053039;28;20060;-72
2022/08/07 06:51:00;;;;;;;3.22;2.92;;;21.30;58.60;;;;;;5052762;28;20060;-72
2022/08/07 06:53:27;;;;;;;3.45;3.03;;;21.60;57.30;;;;;;5054166;28;20381;-73
2022/08/07 06:55:54;;;;;;;3.95;3.20;;;21.80;58.50;;;;;;5052234;28;20132;-72
2022/08/07 06:58:21;;;;;;;3.58;2.80;;;21.70;58.10;;;;;;5053991;28;20144;-73
2022/08/07 07:00:49;;;;;;;3.20;2.90;;;21.80;52.80;;;;;;5053560;28;20511;-74
2022/08/07 07:03:16;;;;;;;3.40;3.08;;;21.00;57.80;;;;;;5052817;28;20143;-74
2022/08/07 07:05:43;;;;;;;3.20;2.80;;;;;;;;;;5053744;28;20044;-73
2022/08/07 07:08:11;;;;;;;3.47;3.00;;;;;;;;;;5048391;28;20049;-73
2022/08/07 07:10:38;;;;;;;3.35;2.95;;;22.70;58.10;;;;;;5033280;28;20129;-73
2022/08/07 07:13:09;;;;;;;3.90;3.20;;;22.00;57.70;;;;;;5032102;28;20096;-74
2022/08/07 07:15:39;;;;;;;3.58;3.08;;;21.80;57.20;;;;;;5032695;28;20432;-73
2022/08/07 07:18:16;;;;;;;4.38;3.00;;;22.30;57.70;;;;;;5033035;28;20049;-73
2022/08/07 07:20:45;;;;;;;4.13;3.40;;;22.20;57.60;;;;;;5032062;28;20053;-73
2022/08/07 07:23:12;;;;;;;4.75;3.13;;;21.80;56.80;;;;;;5032483;28;20053;-71
2022/08/07 07:25:39;;;;;;;5.72;2.90;;;22.30;57.30;;;;;;5046224;28;20049;-71
2022/08/07 07:28:11;;;;;;;3.50;3.15;;;22.50;57.00;;;;;;5068743;28;20500;-70
2022/08/07 07:30:40;;;;;;;4.10;3.10;;;22.50;50.60;;;;;;5031740;28;20053;-72
2022/08/07 07:33:08;;;;;;;3.30;2.95;;;22.40;56.90;;;;;;5031688;28;20159;-70
2022/08/07 07:35:35;;;;;;;3.67;3.00;;;23.00;52.10;;;;;;5033633;28;20128;-70
2022/08/07 07:38:02;;;;;;;4.40;2.80;;;22.70;56.90;;;;;;5032315;28;20053;-72
2022/08/07 07:40:29;;;;;;;3.60;3.10;;;23.00;57.40;;;;;;5031516;28;20415;-71
2022/08/07 07:42:56;;;;;;;3.72;2.97;;;23.50;57.10;;;;;;5049364;28;20059;-71
2022/08/07 07:45:25;;;;;;;3.92;2.90;;;22.60;50.90;;;;;;5033900;28;20069;-74
2022/08/07 07:47:52;;;;;;;3.83;3.25;;;22.60;56.50;;;;;;5031716;28;20486;-73
2022/08/07 07:50:22;;;;;;;3.50;3.03;;;22.80;50.40;;;;;;5032778;28;20548;-74
2022/08/07 07:52:49;;;;;;;3.05;2.65;;;;;;;;;;5030990;28;20042;-73
2022/08/07 07:55:15;;;;;;;3.33;2.80;;;22.50;56.40;;;;;;5031785;28;20536;-74
2022/08/07 07:57:43;;;;;;;3.08;2.60;;;;;;;;;;5030786;28;20050;-72
2022/08/07 08:00:11;;;;;;;3.35;2.83;;;23.10;56.50;;;;;;5031721;28;20409;-74
2022/08/07 08:02:38;;;;;;;4.10;2.70;;;22.40;56.30;;;;;;5031456;28;20050;-74
2022/08/07 08:05:05;;;;;;;3.13;2.80;;;22.70;56.50;;;;;;5031801;28;20633;-74
2022/08/07 08:07:35;;;;;;;2.95;2.65;;;23.30;56.80;;;;;;5031634;28;20395;-74
2022/08/07 08:10:02;;;;;;;4.30;3.20;;;23.40;56.60;;;;;;5031940;28;20042;-74
2022/08/07 08:12:29;;;;;;;3.08;2.60;;;;;;;;;;5031508;28;20096;-72
2022/08/07 08:14:56;;;;;;;3.78;2.70;;;23.00;56.90;;;;;;5047795;28;20132;-74
2022/08/07 08:17:22;;;;;;;3.15;2.65;;;22.90;56.50;;;;;;5032319;28;20054;-74
2022/08/07 08:19:49;;;;;;;3.45;2.78;;;;;;;;;;5036798;28;20076;-73
2022/08/07 08:28:01;;;;;;;3.45;2.58;;;22.80;56.60;;;;;;5018881;28;20413;-73
2022/08/07 08:30:28;;;;;;;2.92;2.60;;;22.80;56.20;;;;;;5050302;28;20132;-72
2022/08/07 08:32:56;;;;;;;3.83;2.80;;;23.30;56.20;;;;;;5052163;28;20055;-72
2022/08/07 08:35:25;;;;;;;3.20;2.67;;;23.80;56.50;;;;;;5033292;28;20068;-72
2022/08/07 08:37:53;;;;;;;3.10;2.80;;;;;;;;;;5030984;28;20132;-71
2022/08/07 08:40:24;;;;;;;5.13;2.60;;;23.40;56.40;;;;;;5047723;28;20064;-72
2022/08/07 08:42:54;;;;;;;3.08;2.78;;;23.80;56.40;;;;;;5031087;28;20120;-72
2022/08/07 08:45:24;;;;;;;3.45;2.85;;;23.00;56.70;;;;;;5031255;28;20140;-74
2022/08/07 08:47:56;;;;;;;3.00;2.50;;;22.70;54.70;;;;;;5030516;28;20053;-74
2022/08/07 08:50:23;;;;;;;3.55;2.78;;;23.50;56.20;;;;;;5049712;28;20063;-71
2022/08/07 08:52:54;;;;;;;2.55;2.17;;;22.80;56.50;;;;;;5047509;28;20077;-72
2022/08/07 08:55:44;;;;;;;3.20;2.53;;;23.30;50.00;;;;;;5031358;28;20123;-72
2022/08/07 08:58:14;;;;;;;2.80;2.50;;;22.60;55.90;;;;;;5031584;28;20054;-75
2022/08/07 09:00:43;;;;;;;2.90;2.53;;;23.00;55.90;;;;;;5030446;28;20136;-75
2022/08/07 09:03:18;;;;;;;3.25;2.60;;;22.80;55.80;;;;;;5031040;28;20123;-75
2022/08/07 09:05:48;;;;;;;3.35;2.35;;;23.30;50.00;;;;;;5030919;28;20085;-72
2022/08/07 09:08:19;;;;;;;3.00;2.20;;;23.30;50.00;;;;;;5030693;28;20140;-73
2022/08/07 09:10:51;;;;;;;4.10;2.35;;;23.30;56.20;;;;;;5030042;28;20053;-75
2022/08/07 09:13:23;;;;;;;2.95;2.42;;;24.20;56.60;;;;;;5030741;28;20057;-73
2022/08/07 09:15:54;;;;;;;2.60;2.30;;;23.70;57.10;;;;;;5029881;28;20068;-71
2022/08/07 09:18:32;;;;;;;3.10;2.45;;;23.30;50.00;;;;;;5042876;28;20136;-73
2022/08/07 09:21:18;;;;;;;4.03;2.53;;;23.40;50.10;;;;;;5048174;28;20124;-72
2022/08/07 09:23:50;;;;;;;2.90;2.50;;;23.50;53.30;;;;;;5050030;28;20131;-72
2022/08/07 09:26:24;;;;;;;3.10;2.50;;;23.50;52.60;;;;;;5050637;28;20482;-71
2022/08/07 09:28:53;;;;;;;3.22;2.50;;;23.40;50.10;;;;;;5050821;28;20578;-73
2022/08/07 09:31:24;;;;;;;2.95;2.42;;;23.30;56.20;;;;;;5046685;28;20271;-71
2022/08/07 09:33:59;;;;;;;4.35;2.60;;;22.70;55.70;;;;;;5029589;28;20535;-71
2022/08/07 09:36:29;;;;;;;2.70;2.40;;;23.70;53.10;;;;;;5030259;28;20049;-71
2022/08/07 09:39:00;;;;;;;2.45;2.22;;;23.80;56.80;;;;;;5029236;28;20081;-71
2022/08/07 09:41:36;;;;;;;2.50;2.28;;;23.10;56.40;;;;;;5031735;28;20510;-71
2022/08/07 09:44:06;;;;;;;2.72;2.22;;;23.60;56.40;;;;;;5034096;28;20053;-71
2022/08/07 09:46:41;;;;;;;3.33;2.47;;;23.50;56.40;;;;;;5035570;28;20051;-71
2022/08/07 09:49:14;;;;;;;;;;;23.50;51.00;;;;;;5035529;28;20072;-71
2022/08/07 09:51:47;;;;;;;2.60;2.15;;;23.40;56.60;;;;;;5033733;28;20015;-71
2022/08/07 09:54:17;;;;;;;2.60;2.20;;;23.30;56.40;;;;;;5035091;28;20514;-71
2022/08/07 09:57:10;;;;;;;2.30;2.10;;;23.50;50.60;;;;;;5035040;28;20060;-73
2022/08/07 10:00:00;;;;;;;2.60;2.10;;;23.00;56.50;;;;;;5033995;28;20061;-71
2022/08/07 10:02:39;;;;;;;2.95;2.28;;;23.40;50.60;;;;;;5031146;28;20124;-71
2022/08/07 10:05:18;;;;;;;4.00;2.30;;;23.40;50.60;;;;;;5033789;28;20145;-73
2022/08/07 10:07:55;;;;;;;3.00;2.20;;;23.00;56.30;;;;;;5034059;28;20143;-71
2022/08/07 10:10:36;;;;;;;2.83;2.47;;;23.30;56.40;;;;;;5033338;28;20064;-71
2022/08/07 10:13:15;;;;;;;2.97;2.13;;;23.40;56.90;;;;;;5033605;28;20063;-72
2022/08/07 10:15:54;;;;;;;2.50;2.08;;;23.20;56.80;;;;;;5034599;28;20530;-71
2022/08/07 10:18:30;;;;;;;3.92;2.22;;;23.30;56.70;;;;;;5036350;28;20516;-70
2022/08/07 10:21:14;;;;;;;2.70;2.15;;;23.30;50.70;;;;;;5040536;28;20136;-72
2022/08/07 10:23:58;;;;;;;2.53;2.10;;;23.50;57.00;;;;;;5033657;28;20136;-72
2022/08/07 10:26:33;;;;;;;2.63;2.10;;;23.80;57.80;;;;;;5013793;28;20054;-72
2022/08/07 10:29:11;;;;;;;5.00;2.30;;;23.30;50.80;;;;;;5014935;28;20079;-72
2022/08/07 10:31:52;;;;;;;4.35;2.22;;;23.30;50.80;;;;;;5040683;28;20053;-72
2022/08/07 10:34:31;;;;;;;2.38;2.10;;;23.50;52.80;;;;;;5013344;28;20133;-72
2022/08/07 10:37:10;;;;;;;3.67;2.22;;;24.00;57.20;;;;;;5024719;28;20072;-72
2022/08/07 10:39:48;;;;;;;4.13;2.30;;;23.50;57.10;;;;;;5039588;28;20102;-72
2022/08/07 10:42:23;;;;;;;3.25;2.15;;;23.50;57.10;;;;;;5053595;28;20148;-75
2022/08/07 10:44:56;;;;;;;2.40;2.00;;;23.80;57.10;;;;;;5054157;28;20049;-73
2022/08/07 10:47:29;;;;;;;3.83;2.50;;;22.50;56.50;;;;;;5054242;28;20417;-72
2022/08/07 10:49:58;;;;;;;15.60;2.58;;;22.40;56.40;;;;;;5069598;28;20139;-74
2022/08/07 10:52:28;;;;;;;2.90;2.30;;;23.40;56.90;;;;;;5068629;28;20087;-75
2022/08/07 10:54:57;;;;;;;2.90;2.28;;;23.30;57.00;;;;;;5039693;28;20046;-75
2022/08/07 10:57:26;;;;;;;4.38;2.30;;;23.20;50.60;;;;;;5050339;28;20136;-72
2022/08/07 11:00:06;;;;;;;2.30;2.03;;;23.10;57.30;;;;;;5052729;28;20068;-74
2022/08/07 11:02:37;;;;;;;3.33;2.30;;;23.50;57.10;;;;;;5052830;28;20060;-74
2022/08/07 11:05:14;;;;;;;2.97;2.20;;;23.20;50.90;;;;;;5069239;28;20413;-73
2022/08/07 11:07:45;;;;;;;5.38;2.15;;;23.40;57.10;;;;;;5037898;28;20136;-74
2022/08/07 11:10:17;;;;;;;4.03;2.35;;;23.30;57.70;;;;;;5036103;28;20422;-75
2022/08/07 11:12:47;;;;;;;3.22;2.50;;;23.30;57.10;;;;;;5051129;28;20459;-74
2022/08/07 11:15:17;;;;;;;4.50;2.25;;;23.90;57.30;;;;;;5052519;28;20441;-74
2022/08/07 11:17:48;;;;;;;3.00;2.17;;;23.20;57.00;;;;;;5052287;28;20060;-74
2022/08/07 11:20:18;;;;;;;4.25;2.50;;;23.10;51.90;;;;;;5067915;28;20060;-74
2022/08/07 11:22:49;;;;;;;7.05;2.38;;;23.20;51.00;;;;;;5050899;28;20056;-74
2022/08/07 11:25:17;;;;;;;2.83;2.10;;;22.60;56.80;;;;;;5047043;28;20053;-75
2022/08/07 11:27:48;;;;;;;3.72;2.33;;;23.30;57.10;;;;;;5032600;28;20501;-71
2022/08/07 11:30:18;;;;;;;4.20;2.28;;;23.30;52.40;;;;;;5033058;28;20053;-72
2022/08/07 11:32:48;;;;;;;4.75;2.20;;;23.30;51.00;;;;;;5033396;28;20045;-73
2022/08/07 11:35:18;;;;;;;3.40;2.10;;;23.60;57.30;;;;;;5032255;28;20064;-72
2022/08/07 11:37:59;;;;;;;5.03;2.20;;;23.30;51.70;;;;;;5032385;28;20049;-71
2022/08/07 11:40:34;;;;;;;2.50;2.05;;;23.10;57.60;;;;;;5034237;28;20151;-71
2022/08/07 11:43:03;;;;;;;2.95;2.10;;;23.40;51.10;;;;;;5032456;28;20056;-72
2022/08/07 11:45:40;;;;;;;3.35;2.20;;;23.30;57.30;;;;;;5031524;28;20132;-71
2022/08/07 11:48:24;;;;;;;2.58;2.10;;;23.30;51.10;;;;;;5031003;28;20132;-72
2022/08/07 11:50:59;;;;;;;2.63;1.83;;;23.30;51.20;;;;;;5031416;28;20041;-72
2022/08/07 11:53:34;;;;;;;2.95;2.22;;;22.80;57.30;;;;;;5048391;28;20237;-71
2022/08/07 11:56:06;;;;;;;2.97;1.95;;;23.40;57.20;;;;;;5044525;28;20124;-71
2022/08/07 11:58:41;;;;;;;3.08;2.05;;;22.70;57.10;;;;;;5051974;28;20067;-71
2022/08/07 12:01:16;;;;;;;2.63;1.73;;;23.30;53.60;;;;;;5052687;28;20040;-72
2022/08/07 12:03:58;;;;;;;3.25;2.10;;;22.70;57.10;;;;;;5050121;28;20087;-71
2022/08/07 12:06:35;;;;;;;3.42;2.25;;;23.30;57.40;;;;;;5052613;28;20049;-72
2022/08/07 12:09:05;;;;;;;3.40;2.05;;;23.40;51.40;;;;;;5039258;28;20049;-72
2022/08/07 12:11:44;;;;;;;3.28;2.10;;;23.30;57.20;;;;;;5031564;28;20466;-72
2022/08/07 12:14:13;;;;;;;4.72;2.35;;;22.40;56.90;;;;;;5028466;28;20095;-71
2022/08/07 12:16:44;;;;;;;4.80;2.10;;;23.00;57.10;;;;;;5031870;28;20077;-71
2022/08/07 12:19:16;;;;;;;2.53;2.00;;;22.50;56.90;;;;;;5032903;28;20049;-71
2022/08/07 12:22:01;;;;;;;3.00;2.10;;;23.60;57.50;;;;;;5030589;28;20065;-71
2022/08/07 12:24:33;;;;;;;2.88;2.00;;;23.30;51.40;;;;;;5047741;28;20116;-73
2022/08/07 12:27:02;;;;;;;3.47;2.55;;;23.20;58.00;;;;;;5032275;28;20108;-71
2022/08/07 12:29:31;;;;;;;4.20;2.17;;;23.30;57.50;;;;;;5034414;28;20045;-71
2022/08/07 12:32:02;;;;;;;2.95;2.00;;;23.30;57.40;;;;;;5050559;28;20478;-71
2022/08/07 12:34:31;;;;;;;2.40;1.90;;;23.70;56.40;;;;;;5050932;28;20049;-71
2022/08/07 12:36:58;;;;;;;2.63;1.83;;;23.20;57.40;;;;;;5050689;28;20059;-71
2022/08/07 12:39:25;;;;;;;2.15;1.90;;;;;;;;;;5051875;28;20170;-73
2022/08/07 12:41:52;;;;;;;2.90;2.03;;;;;;;;;;5050754;28;20135;-71
2022/08/07 12:44:19;;;;;;;5.20;1.90;;;;;;;;;;5044134;28;20053;-72
2022/08/07 12:46:54;;;;;;;3.38;2.00;;;21.40;56.20;;;;;;5047593;28;20060;-71
2022/08/07 12:49:26;;;;;;;2.65;1.88;;;23.40;57.40;;;;;;5031076;28;20095;-72
2022/08/07 12:52:00;;;;;;;2.50;1.83;;;23.50;57.30;;;;;;5030036;28;20128;-72
2022/08/07 12:54:31;;;;;;;2.77;1.90;;;23.30;57.50;;;;;;5031938;28;20459;-71
2022/08/07 12:56:58;;;;;;;2.00;1.80;;;23.50;57.70;;;;;;5030515;28;20482;-71
2022/08/07 12:59:27;;;;;;;2.35;1.80;;;23.80;57.80;;;;;;5030146;28;20053;-71
2022/08/07 13:02:01;;;;;;;2.33;1.80;;;23.30;57.40;;;;;;5031095;28;20562;-72
2022/08/07 13:04:51;;;;;;;2.40;1.80;;;23.50;57.40;;;;;;5029335;28;20049;-71
2022/08/07 13:07:30;;;;;;;2.42;1.75;;;22.70;55.80;;;;;;5030159;28;20055;-71
2022/08/07 13:10:04;;;;;;;3.50;2.10;;;23.30;51.40;;;;;;5029485;28;20358;-71
2022/08/07 13:12:34;;;;;;;1.98;1.67;;;23.50;57.80;;;;;;5041567;28;20128;-71
2022/08/07 13:15:03;;;;;;;2.42;1.77;;;23.60;57.50;;;;;;5049767;28;20060;-70
2022/08/07 13:17:33;;;;;;;4.32;1.95;;;23.40;57.50;;;;;;5050495;28;20478;-73